Time;durP1;ratioP1;P1;durP2;ratioP2;P2;SDS_P1;SDS_P2;PMS_P1;PMS_P2;Temp;Humidity;BMP_temperature;BMP_pressure;BME280_temperature;BME280_humidity;BME280_pressure;Samples;Min_cycle;Max_cycle;Signal;HPM_P1;HPM_P2
2023/07/26 00:00:07;;;;;;;24.27;4.78;;;28.00;57.10;;;;;;6215427;23;20005;-79
2023/07/26 00:02:33;;;;;;;21.50;5.47;;;28.00;57.40;;;;;;6215288;23;20099;-78
2023/07/26 00:04:59;;;;;;;32.90;5.60;;;28.00;57.30;;;;;;6215211;23;20039;-77
2023/07/26 00:07:24;;;;;;;23.65;5.60;;;28.00;57.40;;;;;;6188501;23;20055;-78
2023/07/26 00:09:50;;;;;;;28.00;5.55;;;28.00;57.30;;;;;;6215370;23;20004;-79
2023/07/26 00:12:16;;;;;;;27.70;5.68;;;28.10;57.50;;;;;;6215590;23;20001;-78
2023/07/26 00:14:42;;;;;;;29.40;5.38;;;28.10;57.50;;;;;;6215378;23;20008;-79
2023/07/26 00:17:07;;;;;;;27.35;5.75;;;28.00;57.70;;;;;;6215973;23;20434;-78
2023/07/26 00:19:33;;;;;;;32.15;6.55;;;28.00;57.80;;;;;;6215568;23;20004;-79
2023/07/26 00:21:59;;;;;;;28.58;5.63;;;28.00;58.00;;;;;;6215660;23;20064;-78
2023/07/26 00:24:24;;;;;;;31.65;6.18;;;28.00;58.10;;;;;;6215186;23;20079;-78
2023/07/26 00:26:50;;;;;;;25.55;5.35;;;27.90;58.40;;;;;;6215089;23;20016;-78
2023/07/26 00:29:16;;;;;;;27.90;5.72;;;27.90;58.90;;;;;;6215244;23;20419;-78
2023/07/26 00:31:42;;;;;;;28.55;5.90;;;27.90;58.70;;;;;;6215303;23;20080;-79
2023/07/26 00:34:08;;;;;;;33.42;5.65;;;28.00;58.70;;;;;;6215196;23;20031;-77
2023/07/26 00:36:34;;;;;;;31.35;6.47;;;27.90;58.90;;;;;;6188463;23;20008;-78
2023/07/26 00:38:59;;;;;;;34.80;6.25;;;27.90;59.30;;;;;;6188538;23;20012;-77
2023/07/26 00:41:25;;;;;;;33.95;6.05;;;27.90;59.60;;;;;;6215219;23;20078;-77
2023/07/26 00:43:51;;;;;;;36.28;6.85;;;27.90;60.20;;;;;;6188222;23;20005;-78
2023/07/26 00:46:17;;;;;;;31.48;6.22;;;27.80;60.40;;;;;;6214986;23;20308;-77
2023/07/26 00:48:43;;;;;;;36.58;6.40;;;27.80;60.40;;;;;;6215059;23;20024;-77
2023/07/26 00:51:09;;;;;;;28.48;5.95;;;27.80;61.00;;;;;;6215373;23;20005;-77
2023/07/26 00:53:35;;;;;;;36.78;6.43;;;27.70;61.10;;;;;;6215103;23;19997;-76
2023/07/26 00:56:02;;;;;;;30.45;5.88;;;27.70;60.90;;;;;;6188139;23;20051;-78
2023/07/26 00:58:28;;;;;;;37.25;6.47;;;27.70;61.50;;;;;;6215239;23;20001;-77
2023/07/26 01:00:55;;;;;;;36.53;6.57;;;27.60;61.50;;;;;;6215126;23;20000;-79
2023/07/26 01:03:21;;;;;;;28.75;6.18;;;27.60;61.50;;;;;;6215027;23;20044;-77
2023/07/26 01:06:09;;;;;;;30.85;5.65;;;27.60;61.80;;;;;;6217652;23;20009;-77
2023/07/26 01:08:47;;;;;;;33.40;5.93;;;27.60;62.30;;;;;;6216906;23;20000;-79
2023/07/26 01:11:23;;;;;;;34.75;7.35;;;27.60;61.80;;;;;;6215172;23;20007;-79
2023/07/26 01:13:59;;;;;;;36.50;6.57;;;27.60;61.80;;;;;;6215921;23;20144;-76
2023/07/26 01:16:25;;;;;;;28.95;6.88;;;27.60;61.60;;;;;;6188151;23;20408;-78
2023/07/26 01:18:51;;;;;;;36.95;6.43;;;27.50;61.60;;;;;;6214540;23;20480;-76
2023/07/26 01:21:16;;;;;;;27.17;6.32;;;27.50;61.60;;;;;;6215024;23;20001;-79
2023/07/26 01:23:42;;;;;;;32.60;6.50;;;27.50;61.40;;;;;;6214370;23;19992;-77
2023/07/26 01:26:08;;;;;;;27.50;5.70;;;27.60;61.30;;;;;;6214540;23;20386;-75
2023/07/26 01:28:33;;;;;;;27.70;6.15;;;27.50;61.00;;;;;;6217535;23;20001;-76
2023/07/26 01:31:01;;;;;;;25.67;5.65;;;27.40;61.00;;;;;;6188191;23;20016;-77
2023/07/26 01:33:29;;;;;;;32.00;6.88;;;27.40;61.10;;;;;;6187882;23;20040;-77
2023/07/26 01:35:57;;;;;;;25.65;5.50;;;27.40;61.00;;;;;;6214426;23;20008;-77
2023/07/26 01:38:24;;;;;;;28.33;5.72;;;27.30;61.00;;;;;;6187879;23;20067;-76
2023/07/26 01:40:50;;;;;;;22.98;5.78;;;27.30;61.40;;;;;;6216780;23;20005;-75
2023/07/26 01:43:16;;;;;;;29.95;5.65;;;27.30;61.50;;;;;;6216817;23;20020;-76
2023/07/26 01:45:42;;;;;;;26.33;6.00;;;27.20;61.40;;;;;;6188025;23;20322;-77
2023/07/26 01:48:07;;;;;;;27.98;5.35;;;27.20;61.60;;;;;;6214354;23;20029;-79
2023/07/26 01:50:33;;;;;;;28.10;5.68;;;27.10;61.50;;;;;;6214353;23;20007;-76
2023/07/26 01:52:59;;;;;;;23.10;4.60;;;27.10;61.70;;;;;;6214139;23;20001;-77
2023/07/26 01:55:25;;;;;;;22.15;5.32;;;27.10;61.90;;;;;;6214455;23;20001;-77
2023/07/26 01:57:51;;;;;;;26.17;6.28;;;27.10;61.70;;;;;;6214195;23;20338;-77
2023/07/26 02:00:16;;;;;;;27.05;5.45;;;27.10;61.90;;;;;;6214406;23;19996;-77
2023/07/26 02:02:42;;;;;;;31.65;5.40;;;27.00;61.80;;;;;;6214233;23;20074;-77
2023/07/26 02:05:08;;;;;;;33.50;5.88;;;27.00;62.00;;;;;;6214295;23;20275;-77
2023/07/26 02:07:34;;;;;;;30.55;5.55;;;27.00;62.10;;;;;;6213962;23;20021;-77
2023/07/26 02:09:59;;;;;;;30.58;5.75;;;27.00;62.00;;;;;;6214321;23;20497;-75
2023/07/26 02:12:25;;;;;;;22.58;5.70;;;27.00;62.00;;;;;;6214802;23;20001;-77
2023/07/26 02:14:51;;;;;;;23.25;4.93;;;27.00;62.10;;;;;;6214526;23;20005;-77
2023/07/26 02:17:17;;;;;;;25.60;5.82;;;27.00;61.90;;;;;;6214484;23;20004;-77
2023/07/26 02:19:42;;;;;;;23.25;5.35;;;27.00;62.00;;;;;;6214675;23;20008;-76
2023/07/26 02:22:08;;;;;;;24.13;5.15;;;26.90;61.90;;;;;;6215606;23;19997;-76
2023/07/26 02:24:34;;;;;;;30.25;5.90;;;26.90;61.80;;;;;;6217384;23;20004;-76
2023/07/26 02:26:59;;;;;;;30.25;6.13;;;26.90;62.00;;;;;;6214524;23;20438;-77
2023/07/26 02:29:25;;;;;;;20.60;6.28;;;26.80;61.80;;;;;;6187972;23;20455;-77
2023/07/26 02:31:51;;;;;;;23.20;4.85;;;26.80;61.80;;;;;;6214062;23;20303;-76
2023/07/26 02:34:17;;;;;;;26.15;5.10;;;26.80;61.80;;;;;;6214529;23;20009;-77
2023/07/26 02:36:42;;;;;;;26.45;5.70;;;26.80;61.90;;;;;;6213803;23;20000;-77
2023/07/26 02:39:08;;;;;;;24.77;5.38;;;26.80;61.80;;;;;;6214041;23;20414;-77
2023/07/26 02:41:34;;;;;;;24.95;5.10;;;26.80;61.90;;;;;;6213994;23;20011;-76
2023/07/26 02:43:59;;;;;;;21.42;4.80;;;26.80;61.90;;;;;;6215220;23;20104;-76
2023/07/26 02:46:25;;;;;;;22.90;4.85;;;26.80;61.80;;;;;;6216137;23;20025;-75
2023/07/26 02:48:51;;;;;;;23.92;5.25;;;26.80;61.80;;;;;;6216010;23;20072;-76
2023/07/26 02:51:16;;;;;;;19.38;4.45;;;26.80;61.70;;;;;;6216125;23;20012;-76
2023/07/26 02:53:42;;;;;;;28.52;4.80;;;26.80;61.70;;;;;;6217300;23;20000;-75
2023/07/26 02:56:08;;;;;;;28.23;4.80;;;26.80;61.60;;;;;;6216693;23;20048;-76
2023/07/26 02:58:33;;;;;;;26.52;5.82;;;26.70;61.40;;;;;;6215908;23;20427;-76
2023/07/26 03:00:59;;;;;;;28.17;5.00;;;26.70;61.50;;;;;;6189414;23;20626;-75
2023/07/26 03:03:25;;;;;;;27.52;5.28;;;26.70;61.40;;;;;;6217091;23;20016;-75
2023/07/26 03:05:50;;;;;;;19.80;5.40;;;26.70;61.50;;;;;;6216719;23;20103;-77
2023/07/26 03:08:16;;;;;;;21.10;4.45;;;26.80;61.40;;;;;;6216070;23;20094;-75
2023/07/26 03:10:42;;;;;;;21.70;4.35;;;26.70;61.40;;;;;;6215597;23;20080;-76
2023/07/26 03:13:07;;;;;;;18.95;4.93;;;26.70;61.40;;;;;;6215825;23;20008;-76
2023/07/26 03:15:38;;;;;;;23.83;5.22;;;26.70;61.30;;;;;;6215380;23;20004;-75
2023/07/26 03:18:03;;;;;;;21.23;4.40;;;26.70;61.30;;;;;;6215684;23;20001;-77
2023/07/26 03:20:29;;;;;;;21.27;4.57;;;26.70;61.50;;;;;;6215268;23;20389;-74
2023/07/26 03:22:55;;;;;;;21.35;4.88;;;26.70;61.40;;;;;;6215320;23;20004;-76
2023/07/26 03:25:20;;;;;;;21.20;4.38;;;26.70;61.20;;;;;;6215428;23;20071;-77
2023/07/26 03:27:46;;;;;;;24.15;4.63;;;26.70;61.20;;;;;;6215439;23;20019;-76
2023/07/26 03:30:12;;;;;;;27.35;5.32;;;26.70;61.10;;;;;;6215669;23;20004;-76
2023/07/26 03:32:37;;;;;;;20.20;4.82;;;26.60;60.90;;;;;;6188444;23;20012;-75
2023/07/26 03:35:03;;;;;;;21.70;5.13;;;26.70;61.20;;;;;;6215552;23;20366;-76
2023/07/26 03:37:29;;;;;;;23.17;5.18;;;26.70;61.40;;;;;;6217327;23;20003;-75
2023/07/26 03:39:55;;;;;;;26.88;5.47;;;26.60;61.10;;;;;;6220912;23;20311;-76
2023/07/26 03:42:21;;;;;;;18.17;4.63;;;26.70;61.10;;;;;;6217936;23;20016;-74
2023/07/26 03:44:46;;;;;;;22.15;5.07;;;26.60;61.30;;;;;;6215429;23;20397;-76
2023/07/26 03:47:12;;;;;;;24.98;5.53;;;26.60;61.30;;;;;;6188563;23;20020;-76
2023/07/26 03:49:38;;;;;;;22.10;5.05;;;26.70;61.50;;;;;;6215568;23;20004;-75
2023/07/26 03:52:04;;;;;;;19.70;4.60;;;26.70;61.50;;;;;;6215199;23;20039;-76
2023/07/26 03:54:30;;;;;;;21.38;4.68;;;26.70;61.60;;;;;;6215469;23;20024;-75
2023/07/26 03:56:56;;;;;;;20.77;4.88;;;26.70;61.10;;;;;;6188484;23;20035;-75
2023/07/26 03:59:21;;;;;;;24.48;4.97;;;26.70;61.20;;;;;;6215607;23;19996;-77
2023/07/26 04:01:47;;;;;;;19.70;5.07;;;26.70;61.10;;;;;;6215202;23;20013;-76
2023/07/26 04:04:13;;;;;;;26.85;5.25;;;26.70;61.00;;;;;;6215249;23;19997;-76
2023/07/26 04:06:38;;;;;;;24.58;5.60;;;26.70;61.50;;;;;;6214758;23;20004;-76
2023/07/26 04:09:04;;;;;;;23.95;5.20;;;26.70;61.30;;;;;;6215779;23;20325;-77
2023/07/26 04:11:30;;;;;;;26.10;5.30;;;26.70;61.60;;;;;;6215305;23;20008;-74
2023/07/26 04:13:55;;;;;;;25.58;5.20;;;26.70;61.00;;;;;;6188529;23;20009;-78
2023/07/26 04:16:21;;;;;;;24.50;4.53;;;26.70;61.40;;;;;;6215166;23;20005;-77
2023/07/26 04:18:47;;;;;;;20.33;5.78;;;26.80;61.30;;;;;;6215140;23;20001;-76
2023/07/26 04:21:17;;;;;;;22.05;6.18;;;26.70;61.50;;;;;;6215873;23;20375;-76
2023/07/26 04:23:44;;;;;;;27.33;5.00;;;26.70;61.40;;;;;;6215505;23;20073;-76
2023/07/26 04:26:10;;;;;;;23.02;4.95;;;26.70;61.60;;;;;;6215098;23;20020;-75
2023/07/26 04:28:36;;;;;;;22.15;4.78;;;26.70;61.20;;;;;;6215209;23;20004;-77
2023/07/26 04:31:03;;;;;;;24.80;5.88;;;26.70;61.40;;;;;;6215311;23;20431;-77
2023/07/26 04:33:29;;;;;;;17.30;4.80;;;26.70;61.00;;;;;;6215012;23;20039;-76
2023/07/26 04:35:54;;;;;;;21.73;5.05;;;26.70;61.40;;;;;;6214820;23;20008;-75
2023/07/26 04:38:21;;;;;;;25.63;5.53;;;26.80;61.60;;;;;;6189010;23;20030;-76
2023/07/26 04:40:47;;;;;;;23.15;4.93;;;26.90;61.40;;;;;;6215734;23;20059;-77
2023/07/26 04:43:16;;;;;;;24.42;5.65;;;26.90;61.30;;;;;;6215589;23;20083;-77
2023/07/26 04:45:45;;;;;;;25.15;5.07;;;26.80;61.20;;;;;;6214559;23;20011;-77
2023/07/26 04:48:10;;;;;;;25.45;4.40;;;26.80;61.20;;;;;;6188554;23;20004;-77
2023/07/26 04:50:36;;;;;;;16.70;4.93;;;26.90;60.40;;;;;;6188397;23;20479;-76
2023/07/26 04:53:02;;;;;;;19.48;4.80;;;26.90;60.40;;;;;;6214802;23;20002;-76
2023/07/26 04:55:27;;;;;;;28.08;5.95;;;26.90;60.50;;;;;;6214302;23;20434;-77
2023/07/26 04:57:53;;;;;;;20.67;4.65;;;27.00;60.50;;;;;;6215008;23;20016;-76
2023/07/26 05:00:19;;;;;;;25.58;5.28;;;27.00;60.50;;;;;;6214779;23;20431;-76
2023/07/26 05:02:44;;;;;;;16.45;4.07;;;27.00;60.30;;;;;;6187502;23;20032;-77
2023/07/26 05:05:10;;;;;;;26.92;5.25;;;27.10;60.20;;;;;;6214475;23;20001;-77
2023/07/26 05:07:36;;;;;;;25.40;4.88;;;27.10;60.40;;;;;;6214491;23;20063;-76
2023/07/26 05:10:02;;;;;;;28.52;5.05;;;27.20;60.10;;;;;;6214292;23;20001;-76
2023/07/26 05:12:28;;;;;;;18.85;5.00;;;27.20;60.20;;;;;;6214827;23;20095;-76
2023/07/26 05:14:53;;;;;;;19.02;5.10;;;27.30;60.20;;;;;;6215094;23;20439;-78
2023/07/26 05:17:19;;;;;;;33.45;5.82;;;27.30;59.80;;;;;;6214781;23;20080;-77
2023/07/26 05:19:45;;;;;;;22.15;5.72;;;27.40;59.50;;;;;;6214409;23;20397;-75
2023/07/26 05:22:11;;;;;;;24.77;5.32;;;27.50;59.50;;;;;;6214275;23;20012;-77
2023/07/26 05:24:36;;;;;;;26.08;5.38;;;27.70;59.30;;;;;;6187446;23;20012;-76
2023/07/26 05:27:03;;;;;;;24.55;4.90;;;27.80;59.10;;;;;;6214101;23;20016;-72
2023/07/26 05:29:30;;;;;;;17.45;4.82;;;27.80;59.00;;;;;;6213898;23;20016;-74
2023/07/26 05:31:55;;;;;;;22.02;4.93;;;27.90;58.70;;;;;;6214067;23;20083;-74
2023/07/26 05:34:21;;;;;;;19.48;4.80;;;27.90;58.50;;;;;;6215397;23;20469;-77
2023/07/26 05:36:47;;;;;;;22.88;5.20;;;27.90;58.50;;;;;;6214658;23;20005;-76
2023/07/26 05:39:13;;;;;;;29.45;5.82;;;27.90;58.50;;;;;;6214760;23;20030;-72
2023/07/26 05:41:38;;;;;;;25.15;5.20;;;27.90;58.90;;;;;;6213885;23;20004;-73
2023/07/26 05:44:04;;;;;;;28.35;5.43;;;27.90;59.20;;;;;;6187466;23;20473;-74
2023/07/26 05:46:30;;;;;;;26.40;5.60;;;27.90;59.30;;;;;;6213946;23;20009;-74
2023/07/26 05:48:55;;;;;;;23.42;5.10;;;27.90;59.70;;;;;;6214040;23;20346;-72
2023/07/26 05:51:21;;;;;;;20.15;5.07;;;27.80;59.50;;;;;;6214367;23;20084;-72
2023/07/26 05:53:47;;;;;;;27.55;5.50;;;27.80;59.50;;;;;;6213879;23;20004;-72
2023/07/26 05:56:14;;;;;;;20.33;5.32;;;27.90;59.30;;;;;;6214283;23;20013;-72
2023/07/26 05:58:39;;;;;;;19.98;5.45;;;27.90;59.60;;;;;;6213922;23;20044;-72
